Hauptseite
METAR-TAF:

METAR-TAF

Flughäfen :

Malé International Airport

Malé, Malediven

Breite: 04-12N, Länge: 073-32E, Höhe: 2 m

Beobachtung

Neuester Wetterbericht von vor 55 Minuten, um 10:00 UTC
Wind 12 kt aus Ost
Temperatur 32°C
Luftfeuchtigkeit 67%
Luftdruck 1009 hPa
Sichtweite 10 km oder mehr
Aufgelockert bewölkt in der Höhe von 1800 ft, Towering cumulus.

METAR: VRMM 221000Z 08012KT 9999 SCT018TCU 32/25 Q1009 NOSIG

Zeit: 15:55 (10:55 UTC)

Prognose

Neuester Wetterbericht von vor 5 Stunden und 55 Minuten, um 05:00 UTC
Gültige Prognose vom 22 um 06 UTC bis 23 um 12 UTC
Wind 13 kt aus Ost/Nordost
Sichtweite 10 km oder mehr
Leicht bewölkt in der Höhe von 1800 ft
Zeitweise
vom 22 um 09 UTC bis 22 um 15 UTC
Sichtweite: 5000 m
Leicht bewölkt in der Höhe von 1800 ft, Kumulonimbus.
Regenschauer

TAF: VRMM 220500Z 2206/2312 07013KT 9999 FEW018 TEMPO 2209/2215 5000 -SHRA FEW018CB

Wetterbeobachtungen und Prognosen von mehr als 4000 Flughäfen (METAR und TAF Bericht).

Die verfügbaren Stationen werden durch gelbe und rote Markierungen auf der Karte dargestellt.

Führen Sie die Maus auf sie, um den Namen der Station zu sehen.

Darauf klicken, um die Beobachtung von Wetterbeobachtungen und Prognosen zu sehen.

Um die Karte zu ändern : klicken Sie auf den grünen Tasten mit einem schwarzen Kreuz Zum Vergrößern, auf den grünen Button mit einem Gedankenstrich zu verkleinern, oder auf die grünen Pfeile für benachbarte Karten.


METAR-TAF: